Rayford, Texas
Current Conditions -  °F | °C
As of 8:53 PM on Saturday 25 Oct 2014 (Local Time) from KIAH Reporting Station
Clear Clear  
Wind Chill: 22°   Ceiling: Unl
Heat Index: 22°   Visibility: 10mi
Dew Point: 14°   Wind: 6mph
Humidity: 59%   Direction: 180°S
Pressure: 30.1"   Gusts: NA
Location:  30.0613°N, 95.3841°W
Report Text: KIAH 260153Z 18005KT 10SM CLR 22/14 A3010 RMK AO2 SLP194 T02220139
Loading
Personal Weather Stations






























Interactive Weather Map
Tropical Storm Tracking
New forecast layout! Learn more

10-Day Weather Forecast

Advertisements
Track Severe Weather on mobile